Time;durP1;ratioP1;P1;durP2;ratioP2;P2;SDS_P1;SDS_P2;PMS_P1;PMS_P2;Temp;Humidity;BMP_temperature;BMP_pressure;BME280_temperature;BME280_humidity;BME280_pressure;Samples;Min_cycle;Max_cycle;Signal;HPM_P1;HPM_P2
2022/04/28 00:01:13;;;;;;;17.15;9.50;;;;;;;;;;4981778;28;20438;-82
2022/04/28 00:03:41;;;;;;;16.73;9.65;;;;;;;;;;4983192;28;20443;-83
2022/04/28 00:06:07;;;;;;;16.30;10.30;;;;;;;;;;4983262;28;20429;-82
2022/04/28 00:08:33;;;;;;;12.93;9.15;;;;;;;;;;4985249;28;20953;-83
2022/04/28 00:10:59;;;;;;;15.40;9.40;;;;;;;;;;4985783;28;20436;-82
2022/04/28 00:13:26;;;;;;;13.57;9.27;;;;;;;;;;4984573;28;20418;-83
2022/04/28 00:15:53;;;;;;;15.07;8.88;;;;;;;;;;4982459;28;20437;-82
2022/04/28 00:18:19;;;;;;;14.57;9.15;;;;;;;;;;4986252;28;20486;-82
2022/04/28 00:20:47;;;;;;;16.60;9.17;;;;;;;;;;4984810;28;20557;-81
2022/04/28 00:23:13;;;;;;;17.40;10.20;;;;;;;;;;4987745;28;20442;-83
2022/04/28 00:25:39;;;;;;;15.38;9.30;;;;;;;;;;4981927;28;20430;-82
2022/04/28 00:28:05;;;;;;;15.95;10.40;;;;;;;;;;4981842;28;20490;-82
2022/04/28 00:30:32;;;;;;;13.35;9.15;;;;;;;;;;4980894;28;20430;-83
2022/04/28 00:32:58;;;;;;;11.73;8.87;;;;;;;;;;4982926;28;21155;-82
2022/04/28 00:35:24;;;;;;;16.08;9.90;;;;;;;;;;4983922;28;20512;-82
2022/04/28 00:37:52;;;;;;;14.03;9.20;;;;;;;;;;4983667;28;21064;-82
2022/04/28 00:40:18;;;;;;;14.38;9.00;;;;;;;;;;4983878;28;20865;-82
2022/04/28 00:42:44;;;;;;;15.68;9.32;;;;;;;;;;4985783;28;20834;-82
2022/04/28 00:45:10;;;;;;;16.02;9.60;;;;;;;;;;4982539;28;20426;-82
2022/04/28 00:50:40;;;;;;;14.50;10.25;;;;;;;;;;4984085;28;20437;-82
2022/04/28 00:53:09;;;;;;;14.45;9.48;;;;;;;;;;4984293;28;20437;-82
2022/04/28 00:55:35;;;;;;;15.80;9.60;;;;;;;;;;4985408;28;20485;-82
2022/04/28 00:58:02;;;;;;;13.63;9.73;;;;;;;;;;4985329;28;20496;-83
2022/04/28 01:00:29;;;;;;;16.27;9.32;;;;;;;;;;4982418;28;20442;-83
2022/04/28 01:02:55;;;;;;;16.58;9.15;;;;;;;;;;4984230;28;20445;-83
2022/04/28 01:05:22;;;;;;;16.17;10.48;;;;;;;;;;4985948;28;20430;-81
2022/04/28 01:07:48;;;;;;;16.38;9.40;;;;;;;;;;4986626;28;20979;-82
2022/04/28 01:10:16;;;;;;;15.05;9.93;;;;;;;;;;4985397;28;20851;-82
2022/04/28 01:12:43;;;;;;;17.58;10.50;;;;;;;;;;4986046;28;20460;-81
2022/04/28 01:15:10;;;;;;;14.15;10.32;;;;;;;;;;4985801;28;20435;-82
2022/04/28 01:17:36;;;;;;;17.13;10.90;;;;;;;;;;4985789;28;20444;-82
2022/04/28 01:20:02;;;;;;;15.67;9.90;;;;;;;;;;4984555;28;20500;-82
2022/04/28 01:22:31;;;;;;;15.15;10.00;;;;;;;;;;4985641;28;20450;-82
2022/04/28 01:24:57;;;;;;;17.67;10.52;;;;;;;;;;4984196;28;20895;-82
2022/04/28 01:27:25;;;;;;;14.35;9.88;;;;;;;;;;4986295;28;20520;-83
2022/04/28 01:29:51;;;;;;;12.97;9.43;;;;;;;;;;4983909;28;21040;-82
2022/04/28 01:32:17;;;;;;;15.65;9.70;;;;;;;;;;4985879;28;20926;-82
2022/04/28 01:34:43;;;;;;;12.20;10.32;;;;;;;;;;4985908;28;20928;-82
2022/04/28 01:37:10;;;;;;;15.73;10.50;;;;;;;;;;4986009;28;21052;-82
2022/04/28 01:39:37;;;;;;;14.77;9.70;;;;;;;;;;4983489;28;20438;-82
2022/04/28 01:42:05;;;;;;;13.77;9.80;;;;;;;;;;4986491;28;21283;-82
2022/04/28 01:44:32;;;;;;;13.60;9.60;;;;;;;;;;4984145;28;20442;-82
2022/04/28 01:46:59;;;;;;;16.60;9.90;;;;;;;;;;4986606;28;20436;-82
2022/04/28 01:49:25;;;;;;;14.75;10.35;;;;;;;;;;4984254;28;20435;-82
2022/04/28 01:57:21;;;;;;;18.38;10.85;;;;;;;;;;4986975;28;20437;-82
2022/04/28 01:59:47;;;;;;;14.70;10.38;;;;;;;;;;4983145;28;20490;-83
2022/04/28 02:02:13;;;;;;;15.97;10.00;;;;;;;;;;4985314;28;20562;-82
2022/04/28 02:04:39;;;;;;;18.40;10.30;;;;;;;;;;4984762;28;20440;-82
2022/04/28 02:07:06;;;;;;;19.38;11.35;;;;;;;;;;4986277;28;20434;-82
2022/04/28 02:09:33;;;;;;;14.80;10.15;;;;;;;;;;4984661;28;20459;-82
2022/04/28 02:11:59;;;;;;;15.02;9.57;;;;;;;;;;4988865;28;20437;-82
2022/04/28 02:14:27;;;;;;;15.50;10.18;;;;;;;;;;4985031;28;20931;-82
2022/04/28 02:16:53;;;;;;;14.18;9.95;;;;;;;;;;4986596;28;20440;-82
2022/04/28 02:19:19;;;;;;;15.02;10.13;;;;;;;;;;4985674;28;20434;-82
2022/04/28 02:21:45;;;;;;;15.10;10.90;;;;;;;;;;4986129;28;20920;-84
2022/04/28 02:24:12;;;;;;;16.52;10.70;;;;;;;;;;4986091;28;20863;-82
2022/04/28 02:26:38;;;;;;;17.25;10.52;;;;;;;;;;4983471;28;20912;-82
2022/04/28 02:29:04;;;;;;;16.05;10.38;;;;;;;;;;4983531;28;20467;-83
2022/04/28 02:31:32;;;;;;;14.10;9.90;;;;;;;;;;4982786;28;20461;-82
2022/04/28 02:33:58;;;;;;;15.38;10.50;;;;;;;;;;4982463;28;20446;-82
2022/04/28 02:36:25;;;;;;;16.85;11.20;;;;;;;;;;4983370;28;20481;-82
2022/04/28 02:38:51;;;;;;;14.20;10.80;;;;;;;;;;4983189;28;20470;-82
2022/04/28 02:41:20;;;;;;;14.20;11.00;;;;;;;;;;4982079;28;20436;-83
2022/04/28 02:43:47;;;;;;;15.30;10.87;;;;;;;;;;4984906;28;20512;-82
2022/04/28 02:46:13;;;;;;;17.95;11.63;;;;;;;;;;4982909;28;20456;-82
2022/04/28 02:48:40;;;;;;;17.50;11.03;;;;;;;;;;4984055;28;21035;-82
2022/04/28 02:51:07;;;;;;;19.80;11.60;;;;;;;;;;4983119;28;20435;-82
2022/04/28 02:53:33;;;;;;;15.95;11.75;;;;;;;;;;4983562;28;20441;-82
2022/04/28 02:55:59;;;;;;;16.10;11.32;;;;;;;;;;4982814;28;20437;-82
2022/04/28 02:58:26;;;;;;;17.83;11.40;;;;;;;;;;4983731;28;20533;-83
2022/04/28 03:00:52;;;;;;;13.63;10.90;;;;;;;;;;4978300;28;20500;-82
2022/04/28 03:03:18;;;;;;;14.07;10.15;;;;;;;;;;4981530;28;20512;-82
2022/04/28 03:11:14;;;;;;;18.77;12.50;;;;;;;;;;4981831;28;20461;-83
2022/04/28 03:13:41;;;;;;;19.80;12.32;;;;;;;;;;4981775;28;20464;-81
2022/04/28 03:16:07;;;;;;;19.10;13.50;;;;;;;;;;4980523;28;20510;-82
2022/04/28 03:18:34;;;;;;;16.92;12.02;;;;;;;;;;4982522;28;20432;-82
2022/04/28 03:21:02;;;;;;;20.00;12.48;;;;;;;;;;4981722;28;20521;-81
2022/04/28 03:23:28;;;;;;;19.80;12.45;;;;;;;;;;4982824;28;20438;-82
2022/04/28 03:25:54;;;;;;;19.00;13.50;;;;;;;;;;4981208;28;20431;-82
2022/04/28 03:28:21;;;;;;;19.50;12.55;;;;;;;;;;4981438;28;20446;-82
2022/04/28 03:30:47;;;;;;;19.05;12.90;;;;;;;;;;4979663;28;20440;-82
2022/04/28 03:33:13;;;;;;;20.70;13.40;;;;;;;;;;4982930;28;20438;-82
2022/04/28 03:35:40;;;;;;;21.00;13.77;;;;;;;;;;4981784;28;20431;-82
2022/04/28 03:38:11;;;;;;;19.80;13.30;;;;;;;;;;4981584;28;20442;-83
2022/04/28 03:40:37;;;;;;;19.17;12.70;;;;;;;;;;4979141;28;20466;-82
2022/04/28 03:43:04;;;;;;;20.10;13.52;;;;;;;;;;4982558;28;20428;-82
2022/04/28 03:45:31;;;;;;;20.65;14.88;;;;;;;;;;4981858;28;20430;-82
2022/04/28 03:47:57;;;;;;;22.63;15.02;;;;;;;;;;4980331;28;20448;-82
2022/04/28 03:50:23;;;;;;;21.40;14.15;;;;;;;;;;4979527;28;20931;-82
2022/04/28 03:52:49;;;;;;;20.33;13.93;;;;;;;;;;4982001;28;20528;-82
2022/04/28 03:55:17;;;;;;;22.35;14.38;;;;;;;;;;4981055;28;20428;-82
2022/04/28 03:57:43;;;;;;;22.45;14.25;;;;;;;;;;4980943;28;20867;-83
2022/04/28 04:00:10;;;;;;;21.67;14.02;;;;;;;;;;4979245;28;21016;-82
2022/04/28 04:02:36;;;;;;;21.02;13.55;;;;;;;;;;4982970;28;20442;-82
2022/04/28 04:05:02;;;;;;;24.50;14.80;;;;;;;;;;4980295;28;20439;-82
2022/04/28 04:07:29;;;;;;;24.50;15.95;;;;;;;;;;4978997;28;20438;-82
2022/04/28 04:09:55;;;;;;;23.07;14.87;;;;;;;;;;4979895;28;20434;-82
2022/04/28 04:12:23;;;;;;;19.80;13.57;;;;;;;;;;4982047;28;20492;-82
2022/04/28 04:14:49;;;;;;;19.30;14.20;;;;;;;;;;4981116;28;20518;-83
2022/04/28 04:17:16;;;;;;;19.95;15.05;;;;;;;;;;4980291;28;20443;-83
2022/04/28 04:19:42;;;;;;;20.63;14.75;;;;;;;;;;4976385;28;20439;-83
2022/04/28 04:22:08;;;;;;;23.33;15.82;;;;;;;;;;4981545;28;20438;-82
2022/04/28 04:24:35;;;;;;;21.80;14.70;;;;;;;;;;4980624;28;20503;-82
2022/04/28 04:27:02;;;;;;;23.92;15.45;;;;;;;;;;4981411;28;20440;-82
2022/04/28 04:29:29;;;;;;;23.75;14.68;;;;;;;;;;4980765;28;20437;-82
2022/04/28 04:34:39;;;;;;;23.10;16.15;;;;;;;;;;4978191;28;20441;-83
2022/04/28 04:37:06;;;;;;;19.92;15.10;;;;;;;;;;4979370;28;20449;-82
2022/04/28 04:39:32;;;;;;;23.45;15.32;;;;;;;;;;4977710;28;20493;-83
2022/04/28 04:41:58;;;;;;;24.52;15.60;;;;;;;;;;4982164;28;20466;-83
2022/04/28 04:44:26;;;;;;;24.90;15.88;;;;;;;;;;4983086;28;21300;-82
2022/04/28 04:46:54;;;;;;;25.67;15.52;;;;;;;;;;4982705;28;20441;-82
2022/04/28 04:49:20;;;;;;;27.40;16.08;;;;;;;;;;4983168;28;20467;-83
2022/04/28 04:51:46;;;;;;;25.10;16.50;;;;;;;;;;4985013;28;20494;-83
2022/04/28 04:54:13;;;;;;;24.55;15.90;;;;;;;;;;4986727;28;20438;-83
2022/04/28 04:56:39;;;;;;;26.27;16.27;;;;;;;;;;4984341;28;20428;-82
2022/04/28 04:59:05;;;;;;;29.37;17.90;;;;;;;;;;4986643;28;20495;-83
2022/04/28 05:01:31;;;;;;;20.77;16.25;;;;;;;;;;4979532;28;20488;-83
2022/04/28 05:03:59;;;;;;;21.13;14.57;;;;;;;;;;4982810;28;20430;-82
2022/04/28 05:06:25;;;;;;;24.90;16.02;;;;;;;;;;4979571;28;20438;-83
2022/04/28 05:08:52;;;;;;;22.00;15.18;;;;;;;;;;4979286;28;20507;-82
2022/04/28 05:11:18;;;;;;;23.15;15.50;;;;;;;;;;4979330;28;20508;-83
2022/04/28 05:13:44;;;;;;;25.50;15.15;;;;;;;;;;4979473;28;20446;-83
2022/04/28 05:16:11;;;;;;;19.33;15.57;;;;;;;;;;4978449;28;20502;-82
2022/04/28 05:18:38;;;;;;;22.25;15.20;;;;;;;;;;4979981;28;20436;-84
2022/04/28 05:21:05;;;;;;;23.35;15.30;;;;;;;;;;4980272;28;20524;-83
2022/04/28 05:23:32;;;;;;;24.20;16.13;;;;;;;;;;4982276;28;20434;-84
2022/04/28 05:25:58;;;;;;;26.10;16.95;;;;;;;;;;4982712;28;20430;-83
2022/04/28 05:28:26;;;;;;;24.93;16.97;;;;;;;;;;4983302;28;20444;-83
2022/04/28 05:30:54;;;;;;;28.55;17.33;;;;;;;;;;4981818;28;20438;-83
2022/04/28 05:33:20;;;;;;;24.33;16.35;;;;;;;;;;4982808;28;20434;-82
2022/04/28 05:35:46;;;;;;;24.65;17.42;;;;;;;;;;4980777;28;20438;-83
2022/04/28 05:38:14;;;;;;;23.90;17.13;;;;;;;;;;4980378;28;20448;-82
2022/04/28 05:40:40;;;;;;;25.58;16.70;;;;;;;;;;4979925;28;20426;-82
2022/04/28 05:45:51;;;;;;;22.45;15.32;;;;;;;;;;4983001;28;20971;-82
2022/04/28 05:48:18;;;;;;;22.27;15.77;;;;;;;;;;4985166;28;20496;-83
2022/04/28 05:50:45;;;;;;;19.70;14.53;;;;;;;;;;4979495;28;20428;-82
2022/04/28 05:53:11;;;;;;;23.80;15.20;;;;;;;;;;4980295;28;20987;-83
2022/04/28 05:55:39;;;;;;;22.63;15.30;;;;;;;;;;4983494;28;20435;-82
2022/04/28 05:58:06;;;;;;;23.58;15.50;;;;;;;;;;4982714;28;20493;-84
2022/04/28 06:00:33;;;;;;;20.38;14.48;;;;;;;;;;4983315;28;20430;-84
2022/04/28 06:02:59;;;;;;;27.60;16.52;;;;;;;;;;4982208;28;20450;-82
2022/04/28 06:05:26;;;;;;;22.88;15.55;;;;;;;;;;4979447;28;20438;-83
2022/04/28 06:07:52;;;;;;;22.50;15.63;;;;;;;;;;4980858;28;20837;-83
2022/04/28 06:10:19;;;;;;;20.75;15.00;;;;;;;;;;4980053;28;20989;-83
2022/04/28 06:12:46;;;;;;;25.43;14.70;;;;;;;;;;4982807;28;20540;-82
2022/04/28 06:15:14;;;;;;;24.50;15.55;;;;;;;;;;4982266;28;20430;-83
2022/04/28 06:17:40;;;;;;;21.30;13.98;;;;;;;;;;4983416;28;21225;-83
2022/04/28 06:20:07;;;;;;;24.50;14.32;;;;;;;;;;4981464;28;20495;-83
2022/04/28 06:22:33;;;;;;;23.50;14.80;;;;;;;;;;4982200;28;20442;-83
2022/04/28 06:24:59;;;;;;;20.02;13.93;;;;;;;;;;4978871;28;20439;-83
2022/04/28 06:27:28;;;;;;;20.73;14.13;;;;;;;;;;4983140;28;20434;-84
2022/04/28 06:29:55;;;;;;;22.25;13.50;;;;;;;;;;4980259;28;20427;-83
2022/04/28 06:32:22;;;;;;;19.27;13.77;;;;;;;;;;4982161;28;20799;-83
2022/04/28 06:34:49;;;;;;;17.50;11.82;;;;;;;;;;4981472;28;20506;-83
2022/04/28 06:37:15;;;;;;;14.75;11.88;;;;;;;;;;4981148;28;20939;-84
2022/04/28 06:39:42;;;;;;;18.33;12.43;;;;;;;;;;4979994;28;20437;-84
2022/04/28 06:42:08;;;;;;;17.80;12.18;;;;;;;;;;4981939;28;20431;-82
2022/04/28 06:44:36;;;;;;;16.85;12.70;;;;;;;;;;4981531;28;20408;-84
2022/04/28 06:47:05;;;;;;;20.33;12.17;;;;;;;;;;4985099;28;20513;-84
2022/04/28 06:49:31;;;;;;;20.52;13.00;;;;;;;;;;4979057;28;20446;-83
2022/04/28 06:51:57;;;;;;;18.42;12.30;;;;;;;;;;4981619;28;20914;-84
2022/04/28 06:54:23;;;;;;;14.90;11.27;;;;;;;;;;4981325;28;20465;-84
2022/04/28 06:56:50;;;;;;;15.45;10.77;;;;;;;;;;4983419;28;20415;-84
2022/04/28 06:59:16;;;;;;;16.65;11.23;;;;;;;;;;4979597;28;20828;-84
2022/04/28 07:01:43;;;;;;;16.73;11.63;;;;;;;;;;4983266;28;20444;-84
2022/04/28 07:04:10;;;;;;;17.00;11.88;;;;;;;;;;4981916;28;20922;-84
2022/04/28 07:06:36;;;;;;;16.58;12.23;;;;;;;;;;4981453;28;20489;-84
2022/04/28 07:09:03;;;;;;;14.88;10.27;;;;;;;;;;4980873;28;20424;-85
2022/04/28 07:11:29;;;;;;;17.40;11.43;;;;;;;;;;4982615;28;20426;-84
2022/04/28 07:13:55;;;;;;;16.48;11.30;;;;;;;;;;4982313;28;20530;-84
2022/04/28 07:16:21;;;;;;;17.55;12.02;;;;;;;;;;4979704;28;20855;-84
2022/04/28 07:18:48;;;;;;;15.25;11.23;;;;;;;;;;4981960;28;21008;-84
2022/04/28 07:21:15;;;;;;;16.85;11.90;;;;;;;;;;4980019;28;21033;-84
2022/04/28 07:23:42;;;;;;;16.02;11.20;;;;;;;;;;4979613;28;20852;-84
2022/04/28 07:26:08;;;;;;;18.58;11.02;;;;;;;;;;4982541;28;20935;-84
2022/04/28 07:28:34;;;;;;;19.33;11.80;;;;;;;;;;4978657;28;20500;-84
2022/04/28 07:31:00;;;;;;;19.17;12.10;;;;;;;;;;4979336;28;20888;-84
2022/04/28 07:33:26;;;;;;;18.92;11.35;;;;;;;;;;4982180;28;20460;-84
2022/04/28 07:35:53;;;;;;;17.08;11.18;;;;;;;;;;4978688;28;20443;-84
2022/04/28 07:38:21;;;;;;;16.20;10.40;;;;;;;;;;4979140;28;20444;-84
2022/04/28 07:40:50;;;;;;;15.70;10.73;;;;;;;;;;4979236;28;20477;-84
2022/04/28 07:43:16;;;;;;;14.68;9.00;;;;;;;;;;4980827;28;20442;-84
2022/04/28 07:45:42;;;;;;;15.48;10.80;;;;;;;;;;4979138;28;20430;-84
2022/04/28 07:48:09;;;;;;;14.13;9.85;;;;;;;;;;4983052;28;20762;-84
2022/04/28 07:50:35;;;;;;;13.60;9.40;;;;;;;;;;4977619;28;21008;-84
2022/04/28 07:53:01;;;;;;;16.17;9.35;;;;;;;;;;4980062;28;20427;-84
2022/04/28 07:55:29;;;;;;;15.90;9.00;;;;;;;;;;4977596;28;20434;-84
2022/04/28 07:57:55;;;;;;;18.02;8.82;;;;;;;;;;4982260;28;20445;-84
2022/04/28 08:00:21;;;;;;;18.90;8.23;;;;;;;;;;4977167;28;20828;-84
2022/04/28 08:02:48;;;;;;;13.35;7.40;;;;;;;;;;4979440;28;20862;-84
2022/04/28 08:05:15;;;;;;;13.23;7.60;;;;;;;;;;4979579;28;21012;-84
2022/04/28 08:07:41;;;;;;;17.30;8.25;;;;;;;;;;4980632;28;20521;-85
2022/04/28 08:10:08;;;;;;;14.68;7.90;;;;;;;;;;4979933;28;20434;-84
2022/04/28 08:12:35;;;;;;;12.18;8.38;;;;;;;;;;4977690;28;20511;-85
2022/04/28 08:15:02;;;;;;;12.60;7.53;;;;;;;;;;4979303;28;20461;-85
2022/04/28 08:17:28;;;;;;;12.43;7.70;;;;;;;;;;4979839;28;20445;-85
2022/04/28 08:19:54;;;;;;;19.50;8.52;;;;;;;;;;4979616;28;20428;-84
2022/04/28 08:22:20;;;;;;;13.95;7.88;;;;;;;;;;4978610;28;20442;-85
2022/04/28 08:24:47;;;;;;;14.52;8.70;;;;;;;;;;4978441;28;20434;-84
2022/04/28 08:27:13;;;;;;;15.95;7.70;;;;;;;;;;4976157;28;20496;-84
2022/04/28 08:29:40;;;;;;;19.25;8.80;;;;;;;;;;4977823;28;20426;-84
2022/04/28 08:32:08;;;;;;;15.37;9.10;;;;;;;;;;4978398;28;20455;-84
2022/04/28 08:34:34;;;;;;;13.93;8.00;;;;;;;;;;4977634;28;20440;-85
2022/04/28 08:37:00;;;;;;;14.75;7.78;;;;;;;;;;4978235;28;20788;-84
2022/04/28 08:39:26;;;;;;;18.20;8.20;;;;;;;;;;4977580;28;20940;-84
2022/04/28 08:41:53;;;;;;;12.63;7.40;;;;;;;;;;4977495;28;20461;-83
2022/04/28 08:44:20;;;;;;;14.93;7.47;;;;;;;;;;4980968;28;20849;-85
2022/04/28 08:46:54;;;;;;;11.60;7.40;;;;;;;;;;4980738;28;20450;-85
2022/04/28 08:49:23;;;;;;;13.18;7.65;;;;;;;;;;4980385;28;20442;-84
2022/04/28 08:51:50;;;;;;;14.57;8.55;;;;;;;;;;4979166;28;20442;-85
2022/04/28 08:54:17;;;;;;;15.13;8.07;;;;;;;;;;4982671;28;20445;-85
2022/04/28 08:56:43;;;;;;;13.70;7.90;;;;;;;;;;4984334;28;20438;-84
2022/04/28 08:59:09;;;;;;;15.68;8.30;;;;;;;;;;4984871;28;20457;-84
2022/04/28 09:01:36;;;;;;;17.15;8.18;;;;;;;;;;4985058;28;20928;-85
2022/04/28 09:04:04;;;;;;;16.52;7.97;;;;;;;;;;4985195;28;20436;-85
2022/04/28 09:06:34;;;;;;;16.15;8.20;;;;;;;;;;4983541;28;20434;-84
2022/04/28 09:09:01;;;;;;;16.63;7.90;;;;;;;;;;4983110;28;20446;-85
2022/04/28 09:11:28;;;;;;;14.20;7.40;;;;;;;;;;4983174;28;20424;-85
2022/04/28 09:14:11;;;;;;;12.43;7.45;;;;;;;;;;4984025;28;20490;-83
2022/04/28 09:16:42;;;;;;;13.90;7.30;;;;;;;;;;4983755;28;20506;-85
2022/04/28 09:19:10;;;;;;;11.40;7.80;;;;;;;;;;4984039;28;20515;-84
2022/04/28 09:21:37;;;;;;;18.40;8.70;;;;;;;;;;4983346;28;20431;-83
2022/04/28 09:24:04;;;;;;;14.90;8.50;;;;;;;;;;4983463;28;20983;-84
2022/04/28 09:26:32;;;;;;;14.90;8.73;;;;;;;;;;4983628;28;20480;-85
2022/04/28 09:29:02;;;;;;;13.77;9.13;;;;;;;;;;4983449;28;20447;-84
2022/04/28 09:31:29;;;;;;;16.48;8.63;;;;;;;;;;4983875;28;20450;-84
2022/04/28 09:33:55;;;;;;;14.23;8.80;;;;;;;;;;4984492;28;20937;-84
2022/04/28 09:36:23;;;;;;;17.08;7.90;;;;;;;;;;4984107;28;20857;-85
2022/04/28 09:38:52;;;;;;;13.13;7.32;;;;;;;;;;4983855;28;20741;-84
2022/04/28 09:44:05;;;;;;;15.60;8.32;;;;;;;;;;4984107;28;20575;-84
2022/04/28 09:46:31;;;;;;;14.43;8.40;;;;;;;;;;4983915;28;20445;-85
2022/04/28 09:48:58;;;;;;;18.48;9.25;;;;;;;;;;4982574;28;20444;-84
2022/04/28 09:51:26;;;;;;;18.17;9.00;;;;;;;;;;4982499;28;20480;-85
2022/04/28 09:53:52;;;;;;;15.67;9.30;;;;;;;;;;4983123;28;20553;-85
2022/04/28 09:56:22;;;;;;;16.45;9.18;;;;;;;;;;4983097;28;20432;-85
2022/04/28 09:58:49;;;;;;;13.93;8.70;;;;;;;;;;4980781;28;20446;-85
2022/04/28 10:01:16;;;;;;;13.27;7.85;;;;;;;;;;4983503;28;20431;-85
2022/04/28 10:03:42;;;;;;;15.18;8.20;;;;;;;;;;4984390;28;20438;-85
2022/04/28 10:06:08;;;;;;;16.02;7.88;;;;;;;;;;4981467;28;20494;-84
2022/04/28 10:08:36;;;;;;;12.32;6.95;;;;;;;;;;4982461;28;20809;-85
2022/04/28 10:11:05;;;;;;;16.35;7.18;;;;;;;;;;4982721;28;20481;-85
2022/04/28 10:13:31;;;;;;;15.23;8.15;;;;;;;;;;4983957;28;20440;-85
2022/04/28 10:15:59;;;;;;;16.30;9.13;;;;;;;;;;4979646;28;20439;-86
2022/04/28 10:18:28;;;;;;;15.82;8.27;;;;;;;;;;4979894;28;20521;-85
2022/04/28 10:21:00;;;;;;;15.50;7.88;;;;;;;;;;4982012;28;20513;-84
2022/04/28 10:34:27;;;;;;;12.20;8.02;;;;;;;;;;4983556;28;20395;-84
2022/04/28 10:36:55;;;;;;;11.88;7.00;;;;;;;;;;4980647;28;20436;-85
2022/04/28 10:39:38;;;;;;;13.05;6.80;;;;;;;;;;4979633;28;20432;-85
2022/04/28 10:42:13;;;;;;;13.52;7.30;;;;;;;;;;4981257;28;20929;-84
2022/04/28 10:44:40;;;;;;;14.50;7.47;;;;;;;;;;4981340;28;20897;-84
2022/04/28 10:47:07;;;;;;;10.33;6.37;;;;;;;;;;4980705;28;20455;-85
2022/04/28 10:49:37;;;;;;;14.40;8.60;;;;;;;;;;4980868;28;20450;-85
2022/04/28 10:52:04;;;;;;;15.17;9.10;;;;;;;;;;4980909;28;21135;-85
2022/04/28 10:54:42;;;;;;;13.25;8.13;;;;;;;;;;4979525;28;20955;-85
2022/04/28 10:57:12;;;;;;;15.75;8.20;;;;;;;;;;4982063;28;20525;-86
2022/04/28 10:59:41;;;;;;;14.93;8.15;;;;;;;;;;4979564;28;21044;-85
2022/04/28 11:02:26;;;;;;;12.55;8.20;;;;;;;;;;4982413;28;20434;-84
2022/04/28 11:04:55;;;;;;;15.13;8.18;;;;;;;;;;4981029;28;20433;-85
2022/04/28 11:07:24;;;;;;;13.43;7.80;;;;;;;;;;4980924;28;20452;-85
2022/04/28 11:09:55;;;;;;;16.08;8.18;;;;;;;;;;4982669;28;20408;-85
2022/04/28 11:12:22;;;;;;;13.88;8.00;;;;;;;;;;4981737;28;20440;-85
2022/04/28 11:14:52;;;;;;;12.85;7.65;;;;;;;;;;4981430;28;20433;-86
2022/04/28 11:17:21;;;;;;;15.15;7.90;;;;;;;;;;4983219;28;20424;-85
2022/04/28 11:19:47;;;;;;;10.67;7.10;;;;;;;;;;4980453;28;20989;-86
2022/04/28 11:22:14;;;;;;;18.55;7.20;;;;;;;;;;4983774;28;20787;-84
2022/04/28 11:24:40;;;;;;;16.23;6.90;;;;;;;;;;4981685;28;20530;-85
2022/04/28 11:27:07;;;;;;;14.32;7.15;;;;;;;;;;4981494;28;20460;-85
2022/04/28 11:29:33;;;;;;;14.43;7.57;;;;;;;;;;4982130;28;21032;-84
2022/04/28 11:32:01;;;;;;;16.85;8.45;;;;;;;;;;4982961;28;20432;-85
2022/04/28 11:34:29;;;;;;;13.52;7.38;;;;;;;;;;4986397;28;20447;-85
2022/04/28 11:36:55;;;;;;;15.85;6.93;;;;;;;;;;4983914;28;20436;-85
2022/04/28 11:39:23;;;;;;;16.23;6.47;;;;;;;;;;4983836;28;20416;-85
2022/04/28 11:41:52;;;;;;;14.70;6.50;;;;;;;;;;4984850;28;20430;-85
2022/04/28 11:44:19;;;;;;;10.80;5.90;;;;;;;;;;4985310;28;20432;-86
2022/04/28 11:46:50;;;;;;;13.98;6.20;;;;;;;;;;4986700;28;20829;-86
2022/04/28 11:49:19;;;;;;;9.60;6.25;;;;;;;;;;4981999;28;20444;-85
2022/04/28 11:51:45;;;;;;;12.65;6.05;;;;;;;;;;4985713;28;20432;-85
2022/04/28 11:54:19;;;;;;;14.85;6.70;;;;;;;;;;4984384;28;20422;-85
2022/04/28 11:56:45;;;;;;;12.07;5.95;;;;;;;;;;4985460;28;20434;-86
2022/04/28 11:59:12;;;;;;;11.70;6.95;;;;;;;;;;4982862;28;20438;-85
2022/04/28 12:01:39;;;;;;;15.82;6.30;;;;;;;;;;4984445;28;20531;-85
2022/04/28 12:04:06;;;;;;;10.65;6.22;;;;;;;;;;4984840;28;20476;-86
2022/04/28 12:06:33;;;;;;;14.30;6.27;;;;;;;;;;4984712;28;20521;-85
2022/04/28 12:14:21;;;;;;;12.02;5.60;;;;;;;;;;4984267;28;20484;-85
2022/04/28 12:14:31;;;;;;;10.73;5.90;;;;;;;;;;4982773;28;20437;-85
2022/04/28 12:19:49;;;;;;;11.43;5.43;;;;;;;;;;4980894;28;20433;-85
2022/04/28 12:22:25;;;;;;;12.90;5.80;;;;;;;;;;4979055;28;20891;-85
2022/04/28 12:24:51;;;;;;;10.15;5.72;;;;;;;;;;4981469;28;20434;-85
2022/04/28 12:27:17;;;;;;;14.23;5.35;;;;;;;;;;4981083;28;20822;-85
2022/04/28 12:29:50;;;;;;;11.25;5.35;;;;;;;;;;4985494;28;20488;-86
2022/04/28 12:32:16;;;;;;;13.95;6.88;;;;;;;;;;4988075;28;20547;-86
2022/04/28 12:34:42;;;;;;;12.02;5.75;;;;;;;;;;4988052;28;20439;-85
2022/04/28 12:37:09;;;;;;;13.55;6.00;;;;;;;;;;4988703;28;20517;-85
2022/04/28 12:39:50;;;;;;;15.57;5.80;;;;;;;;;;4988651;28;20410;-85
2022/04/28 12:42:19;;;;;;;8.20;5.60;;;;;;;;;;4986141;28;20522;-85
2022/04/28 12:44:46;;;;;;;11.45;5.20;;;;;;;;;;4988194;28;20514;-85
2022/04/28 12:47:12;;;;;;;9.68;5.20;;;;;;;;;;4990244;28;20496;-86
2022/04/28 12:49:44;;;;;;;10.80;4.60;;;;;;;;;;4986100;28;20949;-86
2022/04/28 12:52:10;;;;;;;7.95;3.90;;;;;;;;;;4985020;28;20565;-86
2022/04/28 12:54:37;;;;;;;11.43;4.05;;;;;;;;;;4986099;28;20942;-86
2022/04/28 12:57:04;;;;;;;10.40;4.10;;;;;;;;;;4986284;28;20928;-85
2022/04/28 12:59:32;;;;;;;8.48;3.58;;;;;;;;;;4983968;28;20453;-86
2022/04/28 13:01:59;;;;;;;9.27;3.38;;;;;;;;;;4984965;28;20434;-85
2022/04/28 13:04:26;;;;;;;7.00;3.90;;;;;;;;;;4986750;28;20847;-86
2022/04/28 13:06:52;;;;;;;10.25;3.90;;;;;;;;;;4985849;28;20511;-86
2022/04/28 13:09:20;;;;;;;19.30;4.30;;;;;;;;;;4983974;28;20434;-86
2022/04/28 13:11:47;;;;;;;11.85;3.85;;;;;;;;;;4987289;28;20418;-85
2022/04/28 13:14:16;;;;;;;7.33;3.77;;;;;;;;;;4985502;28;20437;-87
2022/04/28 13:16:44;;;;;;;10.20;3.75;;;;;;;;;;4983507;28;20443;-85
2022/04/28 13:19:11;;;;;;;10.60;3.90;;;;;;;;;;4983179;28;20427;-85
2022/04/28 13:21:39;;;;;;;9.73;3.70;;;;;;;;;;4983216;28;20426;-86
2022/04/28 13:24:06;;;;;;;13.57;4.22;;;;;;;;;;4984107;28;20435;-85
2022/04/28 13:26:32;;;;;;;9.93;3.60;;;;;;;;;;4983222;28;20475;-85
2022/04/28 13:28:59;;;;;;;8.23;3.67;;;;;;;;;;4984310;28;20496;-85
2022/04/28 13:31:25;;;;;;;14.07;3.63;;;;;;;;;;4986623;28;20477;-86
2022/04/28 13:33:54;;;;;;;10.93;3.95;;;;;;;;;;4985588;28;20494;-85
2022/04/28 13:36:20;;;;;;;10.80;3.73;;;;;;;;;;4982561;28;20426;-85
2022/04/28 13:38:47;;;;;;;9.02;3.50;;;;;;;;;;4984516;28;20442;-85
2022/04/28 13:41:14;;;;;;;9.85;3.67;;;;;;;;;;4980977;28;20441;-85
2022/04/28 13:43:40;;;;;;;9.30;3.50;;;;;;;;;;4984885;28;21199;-85
2022/04/28 13:46:07;;;;;;;13.20;3.95;;;;;;;;;;4986642;28;20418;-87
2022/04/28 13:48:34;;;;;;;6.53;3.53;;;;;;;;;;4986578;28;20431;-86
2022/04/28 13:51:02;;;;;;;9.23;3.50;;;;;;;;;;4985405;28;20461;-86
2022/04/28 13:53:28;;;;;;;9.88;3.20;;;;;;;;;;4985177;28;20487;-85
2022/04/28 13:55:56;;;;;;;9.00;3.60;;;;;;;;;;4985171;28;20932;-86
2022/04/28 13:58:23;;;;;;;10.60;3.00;;;;;;;;;;4986870;28;20993;-86
2022/04/28 14:00:51;;;;;;;8.93;2.83;;;;;;;;;;4984832;28;20965;-85
2022/04/28 14:03:17;;;;;;;8.90;2.90;;;;;;;;;;4986335;28;21025;-86
2022/04/28 14:05:44;;;;;;;9.23;2.90;;;;;;;;;;4983536;28;20430;-86
2022/04/28 14:08:11;;;;;;;7.43;2.80;;;;;;;;;;4986267;28;20436;-86
2022/04/28 14:10:38;;;;;;;10.50;3.15;;;;;;;;;;4985006;28;20440;-86
2022/04/28 14:13:04;;;;;;;9.10;2.50;;;;;;;;;;4986213;28;20440;-85
2022/04/28 14:15:30;;;;;;;10.52;2.90;;;;;;;;;;4985421;28;20426;-86
2022/04/28 14:17:57;;;;;;;8.95;2.90;;;;;;;;;;4986002;28;20470;-85
2022/04/28 14:20:23;;;;;;;5.45;2.85;;;;;;;;;;4982075;28;21082;-86
2022/04/28 14:22:50;;;;;;;10.07;2.70;;;;;;;;;;4984918;28;20438;-86
2022/04/28 14:25:17;;;;;;;14.18;3.15;;;;;;;;;;4984296;28;20432;-86
2022/04/28 14:27:44;;;;;;;11.25;3.50;;;;;;;;;;4986138;28;20487;-86
2022/04/28 14:30:10;;;;;;;7.88;2.97;;;;;;;;;;4983516;28;20445;-87
2022/04/28 14:32:38;;;;;;;8.60;3.27;;;;;;;;;;4984934;28;20424;-86
2022/04/28 14:35:05;;;;;;;8.88;2.80;;;;;;;;;;4985022;28;20424;-86
2022/04/28 14:37:31;;;;;;;11.23;3.30;;;;;;;;;;4983474;28;20447;-86
2022/04/28 14:39:57;;;;;;;7.65;2.90;;;;;;;;;;4986104;28;20436;-85
2022/04/28 14:42:26;;;;;;;5.97;2.58;;;;;;;;;;4983968;28;20973;-85
2022/04/28 14:44:52;;;;;;;8.23;2.90;;;;;;;;;;4986035;28;21098;-85
2022/04/28 14:47:18;;;;;;;4.63;2.60;;;;;;;;;;4985259;28;20465;-85
2022/04/28 14:52:29;;;;;;;9.63;2.95;;;;;;;;;;4984361;28;20455;-86
2022/04/28 14:54:56;;;;;;;8.80;2.97;;;;;;;;;;4983010;28;20458;-86
2022/04/28 14:57:25;;;;;;;6.07;2.30;;;;;;;;;;4984021;28;20444;-86
2022/04/28 14:59:52;;;;;;;10.65;2.83;;;;;;;;;;4983781;28;20448;-84
2022/04/28 15:02:18;;;;;;;10.20;3.00;;;;;;;;;;4985327;28;20492;-86
2022/04/28 15:04:45;;;;;;;10.57;2.80;;;;;;;;;;4985141;28;20426;-86
2022/04/28 15:07:11;;;;;;;8.90;2.70;;;;;;;;;;4985810;28;21012;-86